首页
METAR-TAF:

METAR-TAF

机场 :

盧加諾, 瑞士

纬度: 46-00N, 经度: 008-58E, 海拔: 273米

当前天气观测

该预报发布于20分钟前的09:50 UTC
风速1节,风向多变
温度 7°C
湿度 100%
气压 1013 hPa
能見度: 7000
少量云层高于700英尺
散云层高于1500英尺
多云层高于3500英尺

METAR: LSZA 220950Z VRB01KT 7000 RA FEW007 SCT015 BKN035 07/07 Q1013 NOSIG

时间: 11:10 (10:10 UTC)

预报

该预报发布于1小时和45分钟前的08:25 UTC
预报有效从22日的 09点(UTC)到 22日的 18点(UTC)
风速1节,风向多变
能見度: 7000
少量云层高于700英尺
散云层高于3500英尺
多云层高于4000英尺
小雨
短暂存在
从 22日的 09点(UTC)到 22日的 18点(UTC)
能見度: 4000
多云层高于1200英尺

TAF: LSZA 220825Z 2209/2218 VRB01KT 7000 -RA FEW007 SCT035 BKN040 TEMPO 2209/2218 4000 RA BKN012

超过4000个机场的气象观测和天气预报(METAR&TAF报告)。

可查询的气象台以黄色和红色小点在地图上表示。

将鼠标移到小点上方,可查看气象台名称。

然后点击查看天气观测和预报。

如需切换地图:点击带黑十字的绿色按钮放大地图;点击带横线的绿色按钮缩小地图;或者点击绿色箭头查看邻近地区的地图。


METAR-TAF: